sensor_id;sensor_type;location;lat;lon;timestamp;P1;durP1;ratioP1;P2;durP2;ratioP2
50002;SDS011;35889;51.442;6.408;2023-04-03T00:02:03;0.95;;;0.95;;
50002;SDS011;35889;51.442;6.408;2023-04-03T00:04:28;1.00;;;1.00;;
50002;SDS011;35889;51.442;6.408;2023-04-03T00:06:53;1.00;;;1.00;;
50002;SDS011;35889;51.442;6.408;2023-04-03T00:09:19;0.90;;;0.90;;
50002;SDS011;35889;51.442;6.408;2023-04-03T00:11:45;0.95;;;0.95;;
50002;SDS011;35889;51.442;6.408;2023-04-03T00:14:10;1.00;;;1.00;;
50002;SDS011;35889;51.442;6.408;2023-04-03T00:16:36;1.00;;;1.00;;
50002;SDS011;35889;51.442;6.408;2023-04-03T00:19:01;0.80;;;0.80;;
50002;SDS011;35889;51.442;6.408;2023-04-03T00:21:26;1.00;;;1.00;;
50002;SDS011;35889;51.442;6.408;2023-04-03T00:23:52;1.00;;;1.00;;
50002;SDS011;35889;51.442;6.408;2023-04-03T00:26:17;1.00;;;1.00;;
50002;SDS011;35889;51.442;6.408;2023-04-03T00:28:43;1.00;;;1.00;;
50002;SDS011;35889;51.442;6.408;2023-04-03T00:31:08;1.00;;;1.00;;
50002;SDS011;35889;51.442;6.408;2023-04-03T00:33:34;0.98;;;0.98;;
50002;SDS011;35889;51.442;6.408;2023-04-03T00:36:04;1.00;;;1.00;;
50002;SDS011;35889;51.442;6.408;2023-04-03T00:38:31;1.00;;;1.00;;
50002;SDS011;35889;51.442;6.408;2023-04-03T00:40:56;0.90;;;0.90;;
50002;SDS011;35889;51.442;6.408;2023-04-03T00:43:23;1.10;;;1.10;;
50002;SDS011;35889;51.442;6.408;2023-04-03T00:45:50;1.08;;;1.08;;
50002;SDS011;35889;51.442;6.408;2023-04-03T00:48:18;1.00;;;1.00;;
50002;SDS011;35889;51.442;6.408;2023-04-03T00:50:45;1.10;;;1.10;;
50002;SDS011;35889;51.442;6.408;2023-04-03T00:53:13;1.00;;;1.00;;
50002;SDS011;35889;51.442;6.408;2023-04-03T00:55:41;1.00;;;1.00;;
50002;SDS011;35889;51.442;6.408;2023-04-03T00:58:08;1.00;;;1.00;;
50002;SDS011;35889;51.442;6.408;2023-04-03T01:00:35;1.00;;;1.00;;
50002;SDS011;35889;51.442;6.408;2023-04-03T01:03:02;1.10;;;1.10;;
50002;SDS011;35889;51.442;6.408;2023-04-03T01:05:28;1.10;;;1.10;;
50002;SDS011;35889;51.442;6.408;2023-04-03T01:07:54;1.08;;;1.08;;
50002;SDS011;35889;51.442;6.408;2023-04-03T01:10:20;1.10;;;1.10;;
50002;SDS011;35889;51.442;6.408;2023-04-03T01:12:48;1.10;;;1.10;;
50002;SDS011;35889;51.442;6.408;2023-04-03T01:15:16;1.00;;;1.00;;
50002;SDS011;35889;51.442;6.408;2023-04-03T01:17:45;1.10;;;1.10;;
50002;SDS011;35889;51.442;6.408;2023-04-03T01:25:44;1.10;;;1.10;;
50002;SDS011;35889;51.442;6.408;2023-04-03T01:28:15;1.08;;;1.08;;
50002;SDS011;35889;51.442;6.408;2023-04-03T01:30:44;1.10;;;1.10;;
50002;SDS011;35889;51.442;6.408;2023-04-03T01:33:13;1.10;;;1.10;;
50002;SDS011;35889;51.442;6.408;2023-04-03T01:35:38;1.10;;;1.10;;
50002;SDS011;35889;51.442;6.408;2023-04-03T01:38:04;1.10;;;1.10;;
50002;SDS011;35889;51.442;6.408;2023-04-03T01:40:29;1.10;;;1.10;;
50002;SDS011;35889;51.442;6.408;2023-04-03T01:42:55;1.10;;;1.10;;
50002;SDS011;35889;51.442;6.408;2023-04-03T01:45:20;1.00;;;1.00;;
50002;SDS011;35889;51.442;6.408;2023-04-03T01:47:46;1.00;;;1.00;;
50002;SDS011;35889;51.442;6.408;2023-04-03T01:50:11;1.10;;;1.10;;
50002;SDS011;35889;51.442;6.408;2023-04-03T01:52:37;1.00;;;1.00;;
50002;SDS011;35889;51.442;6.408;2023-04-03T01:55:02;1.10;;;1.10;;
50002;SDS011;35889;51.442;6.408;2023-04-03T01:57:28;0.90;;;0.90;;
50002;SDS011;35889;51.442;6.408;2023-04-03T01:59:54;1.10;;;1.10;;
50002;SDS011;35889;51.442;6.408;2023-04-03T02:02:19;1.10;;;1.10;;
50002;SDS011;35889;51.442;6.408;2023-04-03T02:04:45;1.10;;;1.10;;
50002;SDS011;35889;51.442;6.408;2023-04-03T02:07:11;1.10;;;1.10;;
50002;SDS011;35889;51.442;6.408;2023-04-03T02:09:37;1.10;;;1.10;;
50002;SDS011;35889;51.442;6.408;2023-04-03T02:12:02;1.08;;;1.08;;
50002;SDS011;35889;51.442;6.408;2023-04-03T02:14:29;1.10;;;1.10;;
50002;SDS011;35889;51.442;6.408;2023-04-03T02:16:55;1.00;;;1.00;;
50002;SDS011;35889;51.442;6.408;2023-04-03T02:19:21;1.00;;;1.00;;
50002;SDS011;35889;51.442;6.408;2023-04-03T02:21:47;1.10;;;1.10;;
50002;SDS011;35889;51.442;6.408;2023-04-03T02:24:13;1.10;;;1.10;;
50002;SDS011;35889;51.442;6.408;2023-04-03T02:26:39;1.10;;;1.10;;
50002;SDS011;35889;51.442;6.408;2023-04-03T02:29:04;1.10;;;1.10;;
50002;SDS011;35889;51.442;6.408;2023-04-03T02:31:30;1.05;;;1.05;;
50002;SDS011;35889;51.442;6.408;2023-04-03T02:33:58;0.95;;;0.95;;
50002;SDS011;35889;51.442;6.408;2023-04-03T02:36:24;1.08;;;1.08;;
50002;SDS011;35889;51.442;6.408;2023-04-03T02:38:54;1.10;;;1.10;;
50002;SDS011;35889;51.442;6.408;2023-04-03T02:41:19;1.00;;;1.00;;
50002;SDS011;35889;51.442;6.408;2023-04-03T02:43:46;1.00;;;1.00;;
50002;SDS011;35889;51.442;6.408;2023-04-03T02:46:11;1.08;;;1.08;;
50002;SDS011;35889;51.442;6.408;2023-04-03T02:48:40;1.10;;;1.10;;
50002;SDS011;35889;51.442;6.408;2023-04-03T02:51:05;1.10;;;1.10;;
50002;SDS011;35889;51.442;6.408;2023-04-03T02:53:31;1.10;;;1.10;;
50002;SDS011;35889;51.442;6.408;2023-04-03T02:56:00;1.00;;;1.00;;
50002;SDS011;35889;51.442;6.408;2023-04-03T02:58:25;1.00;;;1.00;;
50002;SDS011;35889;51.442;6.408;2023-04-03T03:00:53;1.10;;;1.10;;
50002;SDS011;35889;51.442;6.408;2023-04-03T03:03:19;1.10;;;1.10;;
50002;SDS011;35889;51.442;6.408;2023-04-03T03:05:44;1.00;;;1.00;;
50002;SDS011;35889;51.442;6.408;2023-04-03T03:08:10;1.10;;;1.10;;
50002;SDS011;35889;51.442;6.408;2023-04-03T03:10:36;1.10;;;1.10;;
50002;SDS011;35889;51.442;6.408;2023-04-03T03:13:01;1.10;;;1.10;;
50002;SDS011;35889;51.442;6.408;2023-04-03T03:15:28;1.00;;;1.00;;
50002;SDS011;35889;51.442;6.408;2023-04-03T03:17:54;1.08;;;1.08;;
50002;SDS011;35889;51.442;6.408;2023-04-03T03:20:19;1.00;;;1.00;;
50002;SDS011;35889;51.442;6.408;2023-04-03T03:22:45;1.10;;;1.10;;
50002;SDS011;35889;51.442;6.408;2023-04-03T03:25:11;1.02;;;1.02;;
50002;SDS011;35889;51.442;6.408;2023-04-03T03:27:36;1.08;;;1.08;;
50002;SDS011;35889;51.442;6.408;2023-04-03T03:30:02;0.90;;;0.90;;
50002;SDS011;35889;51.442;6.408;2023-04-03T03:32:29;1.00;;;1.00;;
50002;SDS011;35889;51.442;6.408;2023-04-03T03:34:54;1.08;;;1.08;;
50002;SDS011;35889;51.442;6.408;2023-04-03T03:37:19;1.10;;;1.10;;
50002;SDS011;35889;51.442;6.408;2023-04-03T03:39:45;1.00;;;1.00;;
50002;SDS011;35889;51.442;6.408;2023-04-03T03:42:11;1.00;;;1.00;;
50002;SDS011;35889;51.442;6.408;2023-04-03T03:44:36;1.05;;;1.05;;
50002;SDS011;35889;51.442;6.408;2023-04-03T03:47:02;1.00;;;1.00;;
50002;SDS011;35889;51.442;6.408;2023-04-03T03:49:28;1.00;;;1.00;;
50002;SDS011;35889;51.442;6.408;2023-04-03T03:51:54;1.10;;;1.10;;
50002;SDS011;35889;51.442;6.408;2023-04-03T03:54:20;1.10;;;1.10;;
50002;SDS011;35889;51.442;6.408;2023-04-03T03:56:46;1.00;;;1.00;;
50002;SDS011;35889;51.442;6.408;2023-04-03T03:59:12;1.08;;;1.08;;
50002;SDS011;35889;51.442;6.408;2023-04-03T04:01:37;1.00;;;1.00;;
50002;SDS011;35889;51.442;6.408;2023-04-03T04:04:03;1.10;;;1.10;;
50002;SDS011;35889;51.442;6.408;2023-04-03T04:06:30;1.00;;;1.00;;
50002;SDS011;35889;51.442;6.408;2023-04-03T04:08:59;1.00;;;1.00;;
50002;SDS011;35889;51.442;6.408;2023-04-03T04:11:25;1.00;;;1.00;;
50002;SDS011;35889;51.442;6.408;2023-04-03T04:13:53;1.00;;;1.00;;
50002;SDS011;35889;51.442;6.408;2023-04-03T04:16:23;1.10;;;1.10;;
50002;SDS011;35889;51.442;6.408;2023-04-03T04:18:48;1.00;;;1.00;;
50002;SDS011;35889;51.442;6.408;2023-04-03T04:21:14;1.00;;;1.00;;
50002;SDS011;35889;51.442;6.408;2023-04-03T04:23:40;1.00;;;1.00;;
50002;SDS011;35889;51.442;6.408;2023-04-03T04:26:07;1.00;;;1.00;;
50002;SDS011;35889;51.442;6.408;2023-04-03T04:28:35;1.10;;;1.10;;
50002;SDS011;35889;51.442;6.408;2023-04-03T04:31:03;1.10;;;1.10;;
50002;SDS011;35889;51.442;6.408;2023-04-03T04:33:28;1.00;;;1.00;;
50002;SDS011;35889;51.442;6.408;2023-04-03T04:35:56;1.00;;;1.00;;
50002;SDS011;35889;51.442;6.408;2023-04-03T04:38:22;1.00;;;1.00;;
50002;SDS011;35889;51.442;6.408;2023-04-03T04:40:50;1.00;;;1.00;;
50002;SDS011;35889;51.442;6.408;2023-04-03T04:43:16;1.00;;;1.00;;
50002;SDS011;35889;51.442;6.408;2023-04-03T04:45:43;1.00;;;1.00;;
50002;SDS011;35889;51.442;6.408;2023-04-03T04:48:09;1.10;;;1.10;;
50002;SDS011;35889;51.442;6.408;2023-04-03T04:50:34;1.00;;;1.00;;
50002;SDS011;35889;51.442;6.408;2023-04-03T04:53:00;1.10;;;1.10;;
50002;SDS011;35889;51.442;6.408;2023-04-03T04:55:26;1.00;;;1.00;;
50002;SDS011;35889;51.442;6.408;2023-04-03T04:57:51;1.10;;;1.10;;
50002;SDS011;35889;51.442;6.408;2023-04-03T05:00:16;1.08;;;1.08;;
50002;SDS011;35889;51.442;6.408;2023-04-03T05:02:43;1.10;;;1.10;;
50002;SDS011;35889;51.442;6.408;2023-04-03T05:05:09;1.00;;;1.00;;
50002;SDS011;35889;51.442;6.408;2023-04-03T05:07:35;1.00;;;1.00;;
50002;SDS011;35889;51.442;6.408;2023-04-03T05:10:02;1.10;;;1.10;;
50002;SDS011;35889;51.442;6.408;2023-04-03T05:12:28;1.10;;;1.10;;
50002;SDS011;35889;51.442;6.408;2023-04-03T05:14:58;1.00;;;1.00;;
50002;SDS011;35889;51.442;6.408;2023-04-03T05:17:25;1.10;;;1.10;;
50002;SDS011;35889;51.442;6.408;2023-04-03T05:19:54;1.00;;;1.00;;
50002;SDS011;35889;51.442;6.408;2023-04-03T05:22:21;1.00;;;1.00;;
50002;SDS011;35889;51.442;6.408;2023-04-03T05:24:46;1.08;;;1.08;;
50002;SDS011;35889;51.442;6.408;2023-04-03T05:27:13;1.10;;;1.10;;
50002;SDS011;35889;51.442;6.408;2023-04-03T05:29:43;1.10;;;1.10;;
50002;SDS011;35889;51.442;6.408;2023-04-03T05:32:12;1.10;;;1.10;;
50002;SDS011;35889;51.442;6.408;2023-04-03T05:34:37;1.10;;;1.10;;
50002;SDS011;35889;51.442;6.408;2023-04-03T05:37:03;1.00;;;1.00;;
50002;SDS011;35889;51.442;6.408;2023-04-03T05:39:30;1.10;;;1.10;;
50002;SDS011;35889;51.442;6.408;2023-04-03T05:41:57;1.00;;;1.00;;
50002;SDS011;35889;51.442;6.408;2023-04-03T05:44:22;1.10;;;1.10;;
50002;SDS011;35889;51.442;6.408;2023-04-03T05:46:49;1.00;;;1.00;;
50002;SDS011;35889;51.442;6.408;2023-04-03T05:49:15;1.10;;;1.10;;
50002;SDS011;35889;51.442;6.408;2023-04-03T05:51:40;1.00;;;1.00;;
50002;SDS011;35889;51.442;6.408;2023-04-03T05:54:15;1.00;;;1.00;;
50002;SDS011;35889;51.442;6.408;2023-04-03T05:56:43;1.00;;;1.00;;
50002;SDS011;35889;51.442;6.408;2023-04-03T05:59:09;1.00;;;1.00;;
50002;SDS011;35889;51.442;6.408;2023-04-03T06:01:35;1.00;;;1.00;;
50002;SDS011;35889;51.442;6.408;2023-04-03T06:04:00;0.95;;;0.95;;
50002;SDS011;35889;51.442;6.408;2023-04-03T06:06:26;1.02;;;1.02;;
50002;SDS011;35889;51.442;6.408;2023-04-03T06:08:51;1.00;;;1.00;;
50002;SDS011;35889;51.442;6.408;2023-04-03T06:11:17;1.00;;;1.00;;
50002;SDS011;35889;51.442;6.408;2023-04-03T06:13:42;0.90;;;0.90;;
50002;SDS011;35889;51.442;6.408;2023-04-03T06:16:09;1.10;;;1.10;;
50002;SDS011;35889;51.442;6.408;2023-04-03T06:18:39;0.90;;;0.90;;
50002;SDS011;35889;51.442;6.408;2023-04-03T06:21:04;0.90;;;0.90;;
50002;SDS011;35889;51.442;6.408;2023-04-03T06:23:32;1.00;;;1.00;;
50002;SDS011;35889;51.442;6.408;2023-04-03T06:25:58;1.00;;;1.00;;
50002;SDS011;35889;51.442;6.408;2023-04-03T06:28:23;1.00;;;1.00;;
50002;SDS011;35889;51.442;6.408;2023-04-03T06:30:48;0.90;;;0.90;;
50002;SDS011;35889;51.442;6.408;2023-04-03T06:33:14;1.10;;;1.10;;
50002;SDS011;35889;51.442;6.408;2023-04-03T06:35:40;1.00;;;1.00;;
50002;SDS011;35889;51.442;6.408;2023-04-03T06:38:05;1.00;;;1.00;;
50002;SDS011;35889;51.442;6.408;2023-04-03T06:40:34;0.90;;;0.90;;
50002;SDS011;35889;51.442;6.408;2023-04-03T06:43:00;1.00;;;1.00;;
50002;SDS011;35889;51.442;6.408;2023-04-03T06:45:26;1.10;;;1.10;;
50002;SDS011;35889;51.442;6.408;2023-04-03T06:47:52;1.00;;;1.00;;
50002;SDS011;35889;51.442;6.408;2023-04-03T06:50:18;1.00;;;1.00;;
50002;SDS011;35889;51.442;6.408;2023-04-03T06:52:44;1.00;;;1.00;;
50002;SDS011;35889;51.442;6.408;2023-04-03T06:55:10;1.00;;;1.00;;
50002;SDS011;35889;51.442;6.408;2023-04-03T06:57:36;1.00;;;1.00;;
50002;SDS011;35889;51.442;6.408;2023-04-03T07:00:02;1.00;;;1.00;;
50002;SDS011;35889;51.442;6.408;2023-04-03T07:02:29;1.00;;;1.00;;
50002;SDS011;35889;51.442;6.408;2023-04-03T07:04:54;1.00;;;1.00;;
50002;SDS011;35889;51.442;6.408;2023-04-03T07:07:20;1.10;;;1.10;;
50002;SDS011;35889;51.442;6.408;2023-04-03T07:09:46;1.00;;;1.00;;
50002;SDS011;35889;51.442;6.408;2023-04-03T07:12:13;1.00;;;1.00;;
50002;SDS011;35889;51.442;6.408;2023-04-03T07:14:38;1.00;;;1.00;;
50002;SDS011;35889;51.442;6.408;2023-04-03T07:17:04;1.00;;;1.00;;
50002;SDS011;35889;51.442;6.408;2023-04-03T07:19:30;1.00;;;1.00;;
50002;SDS011;35889;51.442;6.408;2023-04-03T07:21:57;1.00;;;1.00;;
50002;SDS011;35889;51.442;6.408;2023-04-03T07:24:23;0.90;;;0.90;;
50002;SDS011;35889;51.442;6.408;2023-04-03T07:26:49;1.10;;;1.10;;
50002;SDS011;35889;51.442;6.408;2023-04-03T07:29:15;1.00;;;1.00;;
50002;SDS011;35889;51.442;6.408;2023-04-03T07:31:41;0.90;;;0.90;;
50002;SDS011;35889;51.442;6.408;2023-04-03T07:34:06;1.00;;;1.00;;
50002;SDS011;35889;51.442;6.408;2023-04-03T07:36:32;0.90;;;0.90;;
50002;SDS011;35889;51.442;6.408;2023-04-03T07:38:58;1.00;;;1.00;;
50002;SDS011;35889;51.442;6.408;2023-04-03T07:41:23;0.90;;;0.90;;
50002;SDS011;35889;51.442;6.408;2023-04-03T07:43:49;1.00;;;1.00;;
50002;SDS011;35889;51.442;6.408;2023-04-03T07:46:15;0.95;;;0.95;;
50002;SDS011;35889;51.442;6.408;2023-04-03T07:48:42;1.00;;;1.00;;
50002;SDS011;35889;51.442;6.408;2023-04-03T07:51:07;1.00;;;1.00;;
50002;SDS011;35889;51.442;6.408;2023-04-03T07:53:33;0.95;;;0.95;;
50002;SDS011;35889;51.442;6.408;2023-04-03T07:55:59;0.90;;;0.90;;
50002;SDS011;35889;51.442;6.408;2023-04-03T07:58:25;1.00;;;1.00;;
50002;SDS011;35889;51.442;6.408;2023-04-03T08:00:51;0.90;;;0.90;;
50002;SDS011;35889;51.442;6.408;2023-04-03T08:03:16;1.00;;;1.00;;
50002;SDS011;35889;51.442;6.408;2023-04-03T08:05:43;0.90;;;0.90;;
50002;SDS011;35889;51.442;6.408;2023-04-03T08:08:11;0.90;;;0.90;;
50002;SDS011;35889;51.442;6.408;2023-04-03T08:10:38;1.00;;;1.00;;
50002;SDS011;35889;51.442;6.408;2023-04-03T08:13:04;0.98;;;0.98;;
50002;SDS011;35889;51.442;6.408;2023-04-03T08:15:30;0.95;;;0.95;;
50002;SDS011;35889;51.442;6.408;2023-04-03T08:17:56;1.00;;;1.00;;
50002;SDS011;35889;51.442;6.408;2023-04-03T08:20:22;0.95;;;0.95;;
50002;SDS011;35889;51.442;6.408;2023-04-03T08:22:48;0.90;;;0.90;;
50002;SDS011;35889;51.442;6.408;2023-04-03T08:25:13;1.00;;;1.00;;
50002;SDS011;35889;51.442;6.408;2023-04-03T08:27:39;1.00;;;1.00;;
50002;SDS011;35889;51.442;6.408;2023-04-03T08:30:05;1.10;;;1.10;;
50002;SDS011;35889;51.442;6.408;2023-04-03T08:32:32;1.00;;;1.00;;
50002;SDS011;35889;51.442;6.408;2023-04-03T08:34:59;1.00;;;1.00;;
50002;SDS011;35889;51.442;6.408;2023-04-03T08:37:25;0.90;;;0.90;;
50002;SDS011;35889;51.442;6.408;2023-04-03T08:39:51;1.10;;;1.10;;
50002;SDS011;35889;51.442;6.408;2023-04-03T08:47:46;0.95;;;0.95;;
50002;SDS011;35889;51.442;6.408;2023-04-03T08:50:17;1.00;;;1.00;;
50002;SDS011;35889;51.442;6.408;2023-04-03T08:52:48;0.90;;;0.90;;
50002;SDS011;35889;51.442;6.408;2023-04-03T08:58:04;0.90;;;0.90;;
50002;SDS011;35889;51.442;6.408;2023-04-03T09:03:33;1.00;;;1.00;;
50002;SDS011;35889;51.442;6.408;2023-04-03T09:08:47;1.00;;;1.00;;
50002;SDS011;35889;51.442;6.408;2023-04-03T09:19:22;0.90;;;0.90;;
50002;SDS011;35889;51.442;6.408;2023-04-03T09:22:16;1.00;;;1.00;;
50002;SDS011;35889;51.442;6.408;2023-04-03T09:24:45;0.90;;;0.90;;
50002;SDS011;35889;51.442;6.408;2023-04-03T09:27:11;1.00;;;1.00;;
50002;SDS011;35889;51.442;6.408;2023-04-03T09:29:41;0.90;;;0.90;;
50002;SDS011;35889;51.442;6.408;2023-04-03T09:37:55;1.00;;;1.00;;
50002;SDS011;35889;51.442;6.408;2023-04-03T09:42:50;0.95;;;0.95;;
50002;SDS011;35889;51.442;6.408;2023-04-03T09:45:24;0.95;;;0.95;;
50002;SDS011;35889;51.442;6.408;2023-04-03T09:48:04;0.95;;;0.95;;
50002;SDS011;35889;51.442;6.408;2023-04-03T09:50:52;0.90;;;0.90;;
50002;SDS011;35889;51.442;6.408;2023-04-03T09:53:40;0.90;;;0.90;;
50002;SDS011;35889;51.442;6.408;2023-04-03T09:58:42;0.90;;;0.90;;
50002;SDS011;35889;51.442;6.408;2023-04-03T10:04:13;0.83;;;0.83;;
50002;SDS011;35889;51.442;6.408;2023-04-03T10:09:31;1.00;;;1.00;;
50002;SDS011;35889;51.442;6.408;2023-04-03T10:14:38;0.88;;;0.88;;
50002;SDS011;35889;51.442;6.408;2023-04-03T10:19:40;1.00;;;1.00;;
50002;SDS011;35889;51.442;6.408;2023-04-03T10:22:11;0.90;;;0.90;;
50002;SDS011;35889;51.442;6.408;2023-04-03T10:24:59;0.90;;;0.90;;
50002;SDS011;35889;51.442;6.408;2023-04-03T10:27:44;1.00;;;1.00;;
50002;SDS011;35889;51.442;6.408;2023-04-03T10:30:24;0.80;;;0.80;;
50002;SDS011;35889;51.442;6.408;2023-04-03T10:33:32;1.00;;;1.00;;
50002;SDS011;35889;51.442;6.408;2023-04-03T10:36:05;0.90;;;0.90;;
50002;SDS011;35889;51.442;6.408;2023-04-03T10:47:02;0.90;;;0.90;;
50002;SDS011;35889;51.442;6.408;2023-04-03T10:53:01;0.90;;;0.90;;
50002;SDS011;35889;51.442;6.408;2023-04-03T10:56:05;0.90;;;0.90;;
50002;SDS011;35889;51.442;6.408;2023-04-03T10:58:32;0.80;;;0.80;;
50002;SDS011;35889;51.442;6.408;2023-04-03T11:01:02;0.80;;;0.80;;
50002;SDS011;35889;51.442;6.408;2023-04-03T11:03:36;0.90;;;0.90;;
50002;SDS011;35889;51.442;6.408;2023-04-03T11:06:07;0.80;;;0.80;;
50002;SDS011;35889;51.442;6.408;2023-04-03T11:11:04;0.90;;;0.90;;
50002;SDS011;35889;51.442;6.408;2023-04-03T11:16:06;0.95;;;0.95;;
50002;SDS011;35889;51.442;6.408;2023-04-03T11:18:42;0.90;;;0.90;;
50002;SDS011;35889;51.442;6.408;2023-04-03T11:21:22;0.80;;;0.80;;
50002;SDS011;35889;51.442;6.408;2023-04-03T11:26:19;0.90;;;0.90;;
50002;SDS011;35889;51.442;6.408;2023-04-03T11:28:50;0.85;;;0.85;;
50002;SDS011;35889;51.442;6.408;2023-04-03T11:36:50;0.90;;;0.90;;
50002;SDS011;35889;51.442;6.408;2023-04-03T11:41:51;0.90;;;0.90;;
50002;SDS011;35889;51.442;6.408;2023-04-03T11:47:07;0.90;;;0.90;;
50002;SDS011;35889;51.442;6.408;2023-04-03T11:55:35;0.90;;;0.90;;
50002;SDS011;35889;51.442;6.408;2023-04-03T12:05:49;0.90;;;0.90;;
50002;SDS011;35889;51.442;6.408;2023-04-03T12:08:16;0.90;;;0.90;;
50002;SDS011;35889;51.442;6.408;2023-04-03T12:16:19;0.80;;;0.80;;
50002;SDS011;35889;51.442;6.408;2023-04-03T12:21:14;0.80;;;0.80;;
50002;SDS011;35889;51.442;6.408;2023-04-03T12:26:32;0.90;;;0.90;;
50002;SDS011;35889;51.442;6.408;2023-04-03T12:29:10;0.90;;;0.90;;
50002;SDS011;35889;51.442;6.408;2023-04-03T12:31:45;0.80;;;0.80;;
50002;SDS011;35889;51.442;6.408;2023-04-03T12:37:03;0.88;;;0.88;;
50002;SDS011;35889;51.442;6.408;2023-04-03T12:39:43;0.90;;;0.90;;
50002;SDS011;35889;51.442;6.408;2023-04-03T12:45:11;0.80;;;0.80;;
50002;SDS011;35889;51.442;6.408;2023-04-03T12:47:43;0.90;;;0.90;;
50002;SDS011;35889;51.442;6.408;2023-04-03T12:50:20;0.90;;;0.90;;
50002;SDS011;35889;51.442;6.408;2023-04-03T12:52:54;0.80;;;0.80;;
50002;SDS011;35889;51.442;6.408;2023-04-03T12:55:22;0.82;;;0.82;;
50002;SDS011;35889;51.442;6.408;2023-04-03T12:57:48;0.85;;;0.85;;
50002;SDS011;35889;51.442;6.408;2023-04-03T13:00:21;0.80;;;0.80;;
50002;SDS011;35889;51.442;6.408;2023-04-03T13:02:58;0.80;;;0.80;;
50002;SDS011;35889;51.442;6.408;2023-04-03T13:05:24;1.00;;;1.00;;
50002;SDS011;35889;51.442;6.408;2023-04-03T13:07:52;0.80;;;0.80;;
50002;SDS011;35889;51.442;6.408;2023-04-03T13:10:22;0.80;;;0.80;;
50002;SDS011;35889;51.442;6.408;2023-04-03T13:12:51;0.90;;;0.90;;
50002;SDS011;35889;51.442;6.408;2023-04-03T13:15:19;0.73;;;0.73;;
50002;SDS011;35889;51.442;6.408;2023-04-03T13:17:48;0.70;;;0.70;;
50002;SDS011;35889;51.442;6.408;2023-04-03T13:23:06;0.90;;;0.90;;
50002;SDS011;35889;51.442;6.408;2023-04-03T13:25:34;0.80;;;0.80;;
50002;SDS011;35889;51.442;6.408;2023-04-03T13:28:01;0.80;;;0.80;;
50002;SDS011;35889;51.442;6.408;2023-04-03T13:30:32;0.80;;;0.80;;
50002;SDS011;35889;51.442;6.408;2023-04-03T13:33:00;0.90;;;0.90;;
50002;SDS011;35889;51.442;6.408;2023-04-03T13:37:59;0.80;;;0.80;;
50002;SDS011;35889;51.442;6.408;2023-04-03T13:40:26;0.80;;;0.80;;
50002;SDS011;35889;51.442;6.408;2023-04-03T13:42:59;0.90;;;0.90;;
50002;SDS011;35889;51.442;6.408;2023-04-03T13:45:39;0.80;;;0.80;;
50002;SDS011;35889;51.442;6.408;2023-04-03T13:48:09;0.85;;;0.85;;
50002;SDS011;35889;51.442;6.408;2023-04-03T13:50:59;0.90;;;0.90;;
50002;SDS011;35889;51.442;6.408;2023-04-03T13:57:12;0.70;;;0.70;;
50002;SDS011;35889;51.442;6.408;2023-04-03T13:59:39;0.80;;;0.80;;
50002;SDS011;35889;51.442;6.408;2023-04-03T14:04:44;0.85;;;0.85;;
50002;SDS011;35889;51.442;6.408;2023-04-03T14:07:13;0.80;;;0.80;;
50002;SDS011;35889;51.442;6.408;2023-04-03T14:09:39;0.90;;;0.90;;
50002;SDS011;35889;51.442;6.408;2023-04-03T14:12:07;1.00;;;1.00;;
50002;SDS011;35889;51.442;6.408;2023-04-03T14:14:49;1.20;;;1.20;;
50002;SDS011;35889;51.442;6.408;2023-04-03T14:17:19;1.20;;;1.20;;
50002;SDS011;35889;51.442;6.408;2023-04-03T14:19:46;1.20;;;1.20;;
50002;SDS011;35889;51.442;6.408;2023-04-03T14:22:23;1.20;;;1.20;;
50002;SDS011;35889;51.442;6.408;2023-04-03T14:24:51;1.10;;;1.10;;
50002;SDS011;35889;51.442;6.408;2023-04-03T14:27:22;1.10;;;1.10;;
50002;SDS011;35889;51.442;6.408;2023-04-03T14:29:51;1.10;;;1.10;;
50002;SDS011;35889;51.442;6.408;2023-04-03T14:32:18;1.10;;;1.10;;
50002;SDS011;35889;51.442;6.408;2023-04-03T14:34:45;1.20;;;1.20;;
50002;SDS011;35889;51.442;6.408;2023-04-03T14:37:30;1.20;;;1.20;;
50002;SDS011;35889;51.442;6.408;2023-04-03T14:39:56;1.20;;;1.20;;
50002;SDS011;35889;51.442;6.408;2023-04-03T14:42:24;1.20;;;1.20;;
50002;SDS011;35889;51.442;6.408;2023-04-03T14:44:52;1.20;;;1.20;;
50002;SDS011;35889;51.442;6.408;2023-04-03T14:47:19;1.20;;;1.20;;
50002;SDS011;35889;51.442;6.408;2023-04-03T14:49:46;1.20;;;1.20;;
50002;SDS011;35889;51.442;6.408;2023-04-03T14:52:19;1.20;;;1.20;;
50002;SDS011;35889;51.442;6.408;2023-04-03T14:54:50;1.20;;;1.20;;
50002;SDS011;35889;51.442;6.408;2023-04-03T14:57:16;1.10;;;1.10;;
50002;SDS011;35889;51.442;6.408;2023-04-03T14:59:45;1.10;;;1.10;;
50002;SDS011;35889;51.442;6.408;2023-04-03T15:02:24;1.20;;;1.20;;
50002;SDS011;35889;51.442;6.408;2023-04-03T15:04:51;1.10;;;1.10;;
50002;SDS011;35889;51.442;6.408;2023-04-03T15:07:17;1.10;;;1.10;;
50002;SDS011;35889;51.442;6.408;2023-04-03T15:09:42;1.13;;;1.13;;
50002;SDS011;35889;51.442;6.408;2023-04-03T15:12:08;1.20;;;1.20;;
50002;SDS011;35889;51.442;6.408;2023-04-03T15:14:35;1.20;;;1.20;;
50002;SDS011;35889;51.442;6.408;2023-04-03T15:17:00;1.20;;;1.20;;
50002;SDS011;35889;51.442;6.408;2023-04-03T15:19:26;1.20;;;1.20;;
50002;SDS011;35889;51.442;6.408;2023-04-03T15:21:51;1.20;;;1.20;;
50002;SDS011;35889;51.442;6.408;2023-04-03T15:24:17;1.20;;;1.20;;
50002;SDS011;35889;51.442;6.408;2023-04-03T15:26:42;1.13;;;1.13;;
50002;SDS011;35889;51.442;6.408;2023-04-03T15:29:07;1.20;;;1.20;;
50002;SDS011;35889;51.442;6.408;2023-04-03T15:31:33;1.20;;;1.20;;
50002;SDS011;35889;51.442;6.408;2023-04-03T15:33:59;1.10;;;1.10;;
50002;SDS011;35889;51.442;6.408;2023-04-03T15:36:24;1.10;;;1.10;;
50002;SDS011;35889;51.442;6.408;2023-04-03T15:38:50;1.20;;;1.20;;
50002;SDS011;35889;51.442;6.408;2023-04-03T15:41:15;1.20;;;1.20;;
50002;SDS011;35889;51.442;6.408;2023-04-03T15:43:41;1.20;;;1.20;;
50002;SDS011;35889;51.442;6.408;2023-04-03T15:46:06;1.20;;;1.20;;
50002;SDS011;35889;51.442;6.408;2023-04-03T15:48:32;1.20;;;1.20;;
50002;SDS011;35889;51.442;6.408;2023-04-03T15:50:57;1.10;;;1.10;;
50002;SDS011;35889;51.442;6.408;2023-04-03T15:53:23;1.10;;;1.10;;
50002;SDS011;35889;51.442;6.408;2023-04-03T15:55:48;1.10;;;1.10;;
50002;SDS011;35889;51.442;6.408;2023-04-03T15:58:14;1.10;;;1.10;;
50002;SDS011;35889;51.442;6.408;2023-04-03T16:00:39;1.20;;;1.20;;
50002;SDS011;35889;51.442;6.408;2023-04-03T16:03:07;1.20;;;1.20;;
50002;SDS011;35889;51.442;6.408;2023-04-03T16:05:35;1.20;;;1.20;;
50002;SDS011;35889;51.442;6.408;2023-04-03T16:08:00;1.10;;;1.10;;
50002;SDS011;35889;51.442;6.408;2023-04-03T16:10:26;1.20;;;1.20;;
50002;SDS011;35889;51.442;6.408;2023-04-03T16:12:52;1.20;;;1.20;;
50002;SDS011;35889;51.442;6.408;2023-04-03T16:15:17;1.10;;;1.10;;
50002;SDS011;35889;51.442;6.408;2023-04-03T16:17:43;1.10;;;1.10;;
50002;SDS011;35889;51.442;6.408;2023-04-03T16:20:09;1.10;;;1.10;;
50002;SDS011;35889;51.442;6.408;2023-04-03T16:22:36;0.90;;;0.90;;
50002;SDS011;35889;51.442;6.408;2023-04-03T16:25:02;0.90;;;0.90;;
50002;SDS011;35889;51.442;6.408;2023-04-03T16:27:28;0.90;;;0.90;;
50002;SDS011;35889;51.442;6.408;2023-04-03T16:29:59;0.80;;;0.80;;
50002;SDS011;35889;51.442;6.408;2023-04-03T16:32:25;0.80;;;0.80;;
50002;SDS011;35889;51.442;6.408;2023-04-03T16:34:52;1.00;;;1.00;;
50002;SDS011;35889;51.442;6.408;2023-04-03T16:37:18;0.90;;;0.90;;
50002;SDS011;35889;51.442;6.408;2023-04-03T16:39:43;0.90;;;0.90;;
50002;SDS011;35889;51.442;6.408;2023-04-03T16:42:09;0.82;;;0.82;;
50002;SDS011;35889;51.442;6.408;2023-04-03T16:44:35;0.80;;;0.80;;
50002;SDS011;35889;51.442;6.408;2023-04-03T16:47:01;0.90;;;0.90;;
50002;SDS011;35889;51.442;6.408;2023-04-03T16:49:27;0.88;;;0.88;;
50002;SDS011;35889;51.442;6.408;2023-04-03T16:51:57;0.80;;;0.80;;
50002;SDS011;35889;51.442;6.408;2023-04-03T16:54:23;0.82;;;0.82;;